createdAt,value
2018-01-06T00:01:05.997Z,8.60
2018-01-06T00:03:34.691Z,5.87
2018-01-06T00:06:04.663Z,6.00
2018-01-06T00:08:33.166Z,6.13
2018-01-06T00:11:02.218Z,8.70
2018-01-06T00:13:31.231Z,9.33
2018-01-06T00:16:00.336Z,10.33
2018-01-06T00:18:29.333Z,5.73
2018-01-06T00:20:59.244Z,8.10
2018-01-06T00:23:28.890Z,6.33
2018-01-06T00:25:57.526Z,8.20
2018-01-06T00:28:26.331Z,10.93
2018-01-06T00:30:55.378Z,6.10
2018-01-06T00:33:24.785Z,11.00
2018-01-06T00:35:53.851Z,12.90
2018-01-06T00:38:22.854Z,14.43
2018-01-06T00:40:52.636Z,6.70
2018-01-06T00:43:21.413Z,9.13
2018-01-06T00:45:50.861Z,9.53
2018-01-06T00:48:20.355Z,7.20
2018-01-06T00:50:49.822Z,7.13
2018-01-06T00:53:18.455Z,8.30
2018-01-06T00:55:47.845Z,7.83
2018-01-06T00:58:16.973Z,4.63
2018-01-06T01:00:46.929Z,12.17
2018-01-06T01:03:15.619Z,11.90
2018-01-06T01:05:44.262Z,10.67
2018-01-06T01:08:12.927Z,8.10
2018-01-06T01:10:41.583Z,8.70
2018-01-06T01:13:10.193Z,7.23
2018-01-06T01:15:38.791Z,8.93
2018-01-06T01:18:07.390Z,20.70
2018-01-06T01:20:36.835Z,11.03
2018-01-06T01:23:05.469Z,17.43
2018-01-06T01:25:34.488Z,13.47
2018-01-06T01:28:03.190Z,16.00
2018-01-06T01:30:32.625Z,24.00
2018-01-06T01:33:01.284Z,21.73
2018-01-06T01:35:31.071Z,12.80
2018-01-06T01:37:59.660Z,14.43
2018-01-06T01:40:28.572Z,18.30
2018-01-06T01:42:57.341Z,18.70
2018-01-06T01:45:27.276Z,28.57
2018-01-06T01:47:56.781Z,15.60
2018-01-06T01:50:26.032Z,17.53
2018-01-06T01:52:54.666Z,13.83
2018-01-06T01:55:23.262Z,15.80
2018-01-06T01:57:51.843Z,13.10
2018-01-06T02:00:20.551Z,15.77
2018-01-06T02:02:49.624Z,14.40
2018-01-06T02:05:18.235Z,19.63
2018-01-06T02:07:47.264Z,18.00
2018-01-06T02:10:15.874Z,17.40
2018-01-06T02:12:44.504Z,15.80
2018-01-06T02:15:13.968Z,14.47
2018-01-06T02:17:42.676Z,15.50
2018-01-06T02:20:11.298Z,15.97
2018-01-06T02:22:40.433Z,14.93
2018-01-06T02:25:09.945Z,12.60
2018-01-06T02:27:39.186Z,14.23
2018-01-06T02:30:08.336Z,15.27
2018-01-06T02:32:37.719Z,15.67
2018-01-06T02:35:06.357Z,14.00
2018-01-06T02:37:35.829Z,13.20
2018-01-06T02:40:05.191Z,15.17
2018-01-06T02:42:33.890Z,15.50
2018-01-06T02:45:03.548Z,14.40
2018-01-06T02:47:32.237Z,19.30
2018-01-06T02:50:02.125Z,20.43
2018-01-06T02:52:31.183Z,16.47
2018-01-06T02:54:59.827Z,21.53
2018-01-06T02:57:28.598Z,17.60
2018-01-06T02:59:57.239Z,14.90
2018-01-06T03:02:25.836Z,17.23
2018-01-06T03:04:56.028Z,15.90
2018-01-06T03:07:24.618Z,13.70
2018-01-06T03:09:53.399Z,15.30
2018-01-06T03:12:22.148Z,11.87
2018-01-06T03:14:50.756Z,15.37
2018-01-06T03:17:19.326Z,12.60
2018-01-06T03:19:47.999Z,21.80
2018-01-06T03:22:16.636Z,12.13
2018-01-06T03:24:45.307Z,10.93
2018-01-06T03:27:13.997Z,10.83
2018-01-06T03:29:42.632Z,8.00
2018-01-06T03:32:12.603Z,11.63
2018-01-06T03:34:41.365Z,6.97
2018-01-06T03:37:10.158Z,14.87
2018-01-06T03:39:39.982Z,8.20
2018-01-06T03:42:08.666Z,7.97
2018-01-06T03:44:37.525Z,15.83
2018-01-06T03:47:06.374Z,33.03
2018-01-06T03:49:37.543Z,29.70
2018-01-06T03:52:07.196Z,13.20
2018-01-06T03:54:36.776Z,10.97
2018-01-06T03:57:05.518Z,9.80
2018-01-06T03:59:34.162Z,10.17
2018-01-06T04:02:04.429Z,13.03
2018-01-06T04:04:35.078Z,9.03
2018-01-06T04:07:03.877Z,7.97
2018-01-06T04:09:33.150Z,11.47
2018-01-06T04:12:01.811Z,15.00
2018-01-06T04:14:30.593Z,10.80
2018-01-06T04:16:59.878Z,10.67
2018-01-06T04:19:29.545Z,11.60
2018-01-06T04:21:58.495Z,13.17
2018-01-06T04:24:27.308Z,14.10
2018-01-06T04:26:55.985Z,11.60
2018-01-06T04:29:24.798Z,11.47
2018-01-06T04:31:55.117Z,10.50
2018-01-06T04:34:24.466Z,11.60
2018-01-06T04:36:53.123Z,11.83
2018-01-06T04:39:21.904Z,13.87
2018-01-06T04:41:51.486Z,17.60
2018-01-06T04:44:22.286Z,12.20
2018-01-06T04:46:50.987Z,11.70
2018-01-06T04:49:20.111Z,14.20
2018-01-06T04:51:49.557Z,12.90
2018-01-06T04:54:18.392Z,15.17
2018-01-06T04:56:47.043Z,10.50
2018-01-06T04:59:15.844Z,10.30
2018-01-06T05:01:44.883Z,10.03
2018-01-06T05:04:14.506Z,10.40
2018-01-06T05:06:43.221Z,12.00
2018-01-06T05:09:11.908Z,14.20
2018-01-06T05:11:41.220Z,11.07
2018-01-06T05:14:10.887Z,11.20
2018-01-06T05:16:39.520Z,12.17
2018-01-06T05:19:09.619Z,12.60
2018-01-06T05:21:38.560Z,11.97
2018-01-06T05:24:07.350Z,13.30
2018-01-06T05:26:36.930Z,14.23
2018-01-06T05:29:05.696Z,12.27
2018-01-06T05:31:34.375Z,10.67
2018-01-06T05:34:03.448Z,15.93
2018-01-06T05:36:33.097Z,12.43
2018-01-06T05:39:02.020Z,12.80
2018-01-06T05:41:30.969Z,10.57
2018-01-06T05:43:59.657Z,10.30
2018-01-06T05:46:29.736Z,9.60
2018-01-06T05:48:58.470Z,12.13
2018-01-06T05:51:27.322Z,23.10
2018-01-06T05:53:56.148Z,15.30
2018-01-06T05:56:24.989Z,12.27
2018-01-06T05:58:54.326Z,10.87
2018-01-06T06:01:23.398Z,10.27
2018-01-06T06:03:52.101Z,11.77
2018-01-06T06:06:20.786Z,13.20
2018-01-06T06:08:49.400Z,14.70
2018-01-06T06:11:18.002Z,11.53
2018-01-06T06:13:46.982Z,11.93
2018-01-06T06:16:15.741Z,13.43
2018-01-06T06:18:44.630Z,14.37
2018-01-06T06:21:14.152Z,16.63
2018-01-06T06:23:43.860Z,11.67
2018-01-06T06:26:12.610Z,10.10
2018-01-06T06:28:41.263Z,13.47
2018-01-06T06:31:10.269Z,15.00
2018-01-06T06:33:38.890Z,9.77
2018-01-06T06:36:08.613Z,29.17
2018-01-06T06:38:37.318Z,12.00
2018-01-06T06:41:05.934Z,10.43
2018-01-06T06:43:34.661Z,16.10
2018-01-06T06:46:03.277Z,12.30
2018-01-06T06:48:32.144Z,13.97
2018-01-06T06:51:01.249Z,11.80
2018-01-06T06:53:29.840Z,23.20
2018-01-06T06:55:58.944Z,13.30
2018-01-06T06:58:27.829Z,15.13
2018-01-06T07:00:56.754Z,12.67
2018-01-06T07:03:26.272Z,13.67
2018-01-06T07:05:55.673Z,11.80
2018-01-06T07:08:24.361Z,16.10
2018-01-06T07:10:53.828Z,13.50
2018-01-06T07:13:22.450Z,10.13
2018-01-06T07:15:51.118Z,13.40
2018-01-06T07:18:21.412Z,14.07
2018-01-06T07:20:50.047Z,12.07
2018-01-06T07:23:18.666Z,14.57
2018-01-06T07:25:47.314Z,14.17
2018-01-06T07:28:16.771Z,15.80
2018-01-06T07:30:45.801Z,12.27
2018-01-06T07:33:15.174Z,22.43
2018-01-06T07:35:44.406Z,13.87
2018-01-06T07:38:13.006Z,26.40
2018-01-06T07:40:42.447Z,14.33
2018-01-06T07:43:11.066Z,14.07
2018-01-06T07:45:39.822Z,12.97
2018-01-06T07:48:08.415Z,18.90
2018-01-06T07:50:37.811Z,15.07
2018-01-06T07:53:06.448Z,11.20
2018-01-06T07:55:35.115Z,11.93
2018-01-06T07:58:05.252Z,13.83
2018-01-06T08:00:35.165Z,15.73
2018-01-06T08:03:04.549Z,13.83
2018-01-06T08:05:33.546Z,14.30
2018-01-06T08:08:02.106Z,22.10
2018-01-06T08:10:31.091Z,18.80
2018-01-06T08:13:00.112Z,12.63
2018-01-06T08:15:28.718Z,12.03
2018-01-06T08:17:57.321Z,17.57
2018-01-06T08:20:26.358Z,16.20
2018-01-06T08:22:55.848Z,24.03
2018-01-06T08:25:24.896Z,17.83
2018-01-06T08:27:53.540Z,16.73
2018-01-06T08:30:22.186Z,18.60
2018-01-06T08:32:51.123Z,13.13
2018-01-06T08:35:20.033Z,14.13
2018-01-06T08:37:49.507Z,10.63
2018-01-06T08:40:18.983Z,18.80
2018-01-06T08:42:48.042Z,11.87
2018-01-06T08:45:16.753Z,23.63
2018-01-06T08:47:46.193Z,13.70
2018-01-06T08:50:14.822Z,22.63
2018-01-06T08:52:43.629Z,11.40
2018-01-06T08:55:13.007Z,15.33
2018-01-06T08:57:41.684Z,22.13
2018-01-06T09:00:10.440Z,17.43
2018-01-06T09:02:39.125Z,13.57
2018-01-06T09:05:07.915Z,15.97
2018-01-06T09:07:36.626Z,16.23
2018-01-06T09:10:05.664Z,11.90
2018-01-06T09:12:35.245Z,19.10
2018-01-06T09:15:04.625Z,13.80
2018-01-06T09:17:33.501Z,12.73
2018-01-06T09:20:02.344Z,13.00
2018-01-06T09:22:30.918Z,13.27
2018-01-06T09:24:59.978Z,19.83
2018-01-06T09:27:28.998Z,11.00
2018-01-06T09:29:59.086Z,14.67
2018-01-06T09:32:27.748Z,15.17
2018-01-06T09:34:56.385Z,14.60
2018-01-06T09:37:25.391Z,14.70
2018-01-06T09:39:54.036Z,20.33
2018-01-06T09:42:23.444Z,17.10
2018-01-06T09:44:52.159Z,13.23
2018-01-06T09:47:21.161Z,11.97
2018-01-06T09:49:50.590Z,20.73
2018-01-06T09:52:19.251Z,16.33
2018-01-06T09:54:47.962Z,14.20
2018-01-06T10:04:03.208Z,18.97
2018-01-06T10:06:31.910Z,12.10
2018-01-06T10:09:01.363Z,23.70
2018-01-06T10:11:31.572Z,18.90
2018-01-06T10:14:00.426Z,21.33
2018-01-06T10:16:29.070Z,26.13
2018-01-06T10:18:58.462Z,13.63
2018-01-06T10:21:27.070Z,15.33
2018-01-06T10:23:55.688Z,14.33
2018-01-06T10:26:24.744Z,14.53
2018-01-06T10:28:53.853Z,13.90
2018-01-06T10:31:22.450Z,17.60
2018-01-06T10:33:51.511Z,20.33
2018-01-06T10:36:20.171Z,14.93
2018-01-06T10:38:50.045Z,16.07
2018-01-06T10:41:18.655Z,15.33
2018-01-06T10:43:47.283Z,20.30
2018-01-06T10:46:17.406Z,19.33
2018-01-06T10:48:46.772Z,20.10
2018-01-06T10:51:15.337Z,15.47
2018-01-06T10:53:43.886Z,17.07
2018-01-06T10:56:12.944Z,16.90
2018-01-06T10:58:42.035Z,14.73
2018-01-06T11:01:16.567Z,18.70
2018-01-06T11:03:45.944Z,17.00
2018-01-06T11:06:14.601Z,15.10
2018-01-06T11:08:44.681Z,15.13
2018-01-06T11:11:13.151Z,17.63
2018-01-06T11:13:42.182Z,13.27
2018-01-06T11:16:11.324Z,16.73
2018-01-06T11:18:40.780Z,13.07
2018-01-06T11:21:09.825Z,14.70
2018-01-06T11:23:39.848Z,21.37
2018-01-06T11:26:08.780Z,23.40
2018-01-06T11:28:37.798Z,19.60
2018-01-06T11:31:06.433Z,18.07
2018-01-06T11:33:35.979Z,15.50
2018-01-06T11:36:05.326Z,19.17
2018-01-06T11:38:34.331Z,20.60
2018-01-06T11:41:03.710Z,20.93
2018-01-06T11:43:32.470Z,17.87
2018-01-06T11:46:01.121Z,23.13
2018-01-06T11:48:30.659Z,17.87
2018-01-06T11:50:59.902Z,20.70
2018-01-06T11:53:37.856Z,15.20
2018-01-06T11:56:07.379Z,16.87
2018-01-06T11:58:36.260Z,22.60
2018-01-06T12:01:05.614Z,20.10
2018-01-06T12:03:34.955Z,21.60
2018-01-06T12:06:05.389Z,15.67
2018-01-06T12:08:34.003Z,21.80
2018-01-06T12:11:02.762Z,21.00
2018-01-06T12:13:31.855Z,23.30
2018-01-06T12:16:00.950Z,23.73
2018-01-06T12:18:29.566Z,20.33
2018-01-06T12:20:58.576Z,19.30
2018-01-06T12:23:28.034Z,11.00
2018-01-06T12:25:57.498Z,11.03
2018-01-06T12:28:26.644Z,19.13
2018-01-06T12:30:56.754Z,9.93
2018-01-06T12:33:26.262Z,17.80
2018-01-06T12:35:55.716Z,19.30
2018-01-06T12:38:24.399Z,22.67
2018-01-06T12:40:53.921Z,14.37
2018-01-06T12:43:23.048Z,16.83
2018-01-06T12:45:52.969Z,11.43
2018-01-06T12:48:23.124Z,18.60
2018-01-06T12:50:51.893Z,14.90
2018-01-06T12:53:20.623Z,17.97
2018-01-06T12:55:49.310Z,15.10
2018-01-06T12:58:17.940Z,18.17
2018-01-06T13:00:47.037Z,19.03
2018-01-06T13:03:16.034Z,11.57
2018-01-06T13:05:45.540Z,29.73
2018-01-06T13:11:07.440Z,21.17
2018-01-06T13:13:37.335Z,19.77
2018-01-06T13:16:06.219Z,16.47
2018-01-06T13:18:36.339Z,18.43
2018-01-06T13:21:05.443Z,13.90
2018-01-06T13:23:34.342Z,14.07
2018-01-06T13:26:04.056Z,18.77
2018-01-06T13:28:33.949Z,16.83
2018-01-06T13:31:03.532Z,16.10
2018-01-06T13:33:32.150Z,19.10
2018-01-06T13:36:01.365Z,15.90
2018-01-06T13:38:31.360Z,19.03
2018-01-06T13:41:00.998Z,24.40
2018-01-06T13:43:29.962Z,15.80
2018-01-06T13:45:59.161Z,25.23
2018-01-06T13:48:28.791Z,12.83
2018-01-06T13:50:57.797Z,26.77
2018-01-06T13:53:27.720Z,23.13
2018-01-06T13:55:56.747Z,28.60
2018-01-06T13:58:26.376Z,33.30
2018-01-06T14:00:56.306Z,22.00
2018-01-06T14:03:26.418Z,23.77
2018-01-06T14:05:55.217Z,20.00
2018-01-06T14:08:24.000Z,29.70
2018-01-06T14:10:53.392Z,25.70
2018-01-06T14:13:23.210Z,21.50
2018-01-06T14:15:51.832Z,22.60
2018-01-06T14:18:21.397Z,28.47
2018-01-06T14:20:50.083Z,28.53
2018-01-06T14:23:19.146Z,28.03
2018-01-06T14:28:46.416Z,30.30
2018-01-06T14:31:16.776Z,26.10
2018-01-06T14:33:46.389Z,28.60
2018-01-06T14:36:15.311Z,28.73
2018-01-06T14:38:44.014Z,21.70
2018-01-06T14:41:12.963Z,32.80
2018-01-06T14:43:41.945Z,26.33
2018-01-06T14:46:11.707Z,32.23
2018-01-06T14:48:40.510Z,18.20
2018-01-06T14:51:09.439Z,32.33
2018-01-06T14:53:38.536Z,26.80
2018-01-06T14:56:07.224Z,26.53
2018-01-06T14:58:37.137Z,22.83
2018-01-06T15:01:05.988Z,23.10
2018-01-06T15:03:34.714Z,29.10
2018-01-06T15:06:04.701Z,28.60
2018-01-06T15:11:30.582Z,25.70
2018-01-06T15:13:59.407Z,24.33
2018-01-06T15:16:28.917Z,34.13
2018-01-06T15:18:58.679Z,24.77
2018-01-06T15:21:28.140Z,20.50
2018-01-06T15:23:56.872Z,26.07
2018-01-06T15:26:25.760Z,30.73
2018-01-06T15:28:55.265Z,24.93
2018-01-06T15:40:30.886Z,21.23
2018-01-06T15:43:01.305Z,24.90
2018-01-06T15:45:30.023Z,32.33
2018-01-06T15:48:00.496Z,30.53
2018-01-06T15:50:31.828Z,22.90
2018-01-06T15:53:02.161Z,34.37
2018-01-06T15:55:32.109Z,41.87
2018-01-06T15:58:02.029Z,31.80
2018-01-06T16:00:31.244Z,46.67
2018-01-06T16:03:01.651Z,32.23
2018-01-06T16:08:05.984Z,28.37
2018-01-06T16:10:34.838Z,23.97
2018-01-06T16:13:03.731Z,26.40
2018-01-06T16:15:32.862Z,33.03
2018-01-06T16:18:03.042Z,39.40
2018-01-06T16:20:33.256Z,27.77
2018-01-06T16:23:01.944Z,28.00
2018-01-06T16:25:31.857Z,26.70
2018-01-06T16:28:01.316Z,39.20
2018-01-06T16:30:30.202Z,33.30
2018-01-06T16:32:59.141Z,27.80
2018-01-06T16:35:28.719Z,35.50
2018-01-06T16:37:57.519Z,32.47
2018-01-06T16:40:26.233Z,36.00
2018-01-06T16:42:55.534Z,28.87
2018-01-06T16:45:24.927Z,42.83
2018-01-06T16:47:54.163Z,45.63
2018-01-06T16:50:23.434Z,56.73
2018-01-06T16:52:52.250Z,37.67
2018-01-06T16:55:21.398Z,38.47
2018-01-06T16:57:51.133Z,35.40
2018-01-06T17:00:20.574Z,33.13
2018-01-06T17:02:49.818Z,51.90
2018-01-06T17:05:18.962Z,43.40
2018-01-06T17:07:48.365Z,30.97
2018-01-06T17:10:16.949Z,38.60
2018-01-06T17:12:49.348Z,47.07
2018-01-06T17:15:18.323Z,47.00
2018-01-06T17:17:48.965Z,47.40
2018-01-06T17:20:18.306Z,45.33
2018-01-06T17:22:47.444Z,47.23
2018-01-06T17:25:16.260Z,42.13
2018-01-06T17:27:45.535Z,39.60
2018-01-06T17:30:14.772Z,28.77
2018-01-06T17:32:45.154Z,45.67
2018-01-06T17:35:15.723Z,51.77
2018-01-06T17:37:44.764Z,40.90
2018-01-06T17:40:14.240Z,38.77
2018-01-06T17:42:43.462Z,43.03
2018-01-06T17:45:12.346Z,49.83
2018-01-06T17:47:41.976Z,45.30
2018-01-06T17:50:11.512Z,45.90
2018-01-06T17:52:41.148Z,41.13
2018-01-06T17:55:11.273Z,37.23
2018-01-06T17:57:41.248Z,58.93
2018-01-06T18:00:10.248Z,55.03
2018-01-06T18:02:39.906Z,49.73
2018-01-06T18:05:09.841Z,44.43
2018-01-06T18:07:38.510Z,62.23
2018-01-06T18:10:07.186Z,41.07
2018-01-06T18:12:36.222Z,43.43
2018-01-06T18:15:04.872Z,45.10
2018-01-06T18:17:34.261Z,30.50
2018-01-06T18:20:02.916Z,55.47
2018-01-06T18:22:32.111Z,32.47
2018-01-06T18:25:00.750Z,36.77
2018-01-06T18:27:30.143Z,30.37
2018-01-06T18:29:59.674Z,52.87
2018-01-06T18:32:30.061Z,36.57
2018-01-06T18:34:59.727Z,34.90
2018-01-06T18:37:29.796Z,40.27
2018-01-06T18:39:59.028Z,35.40
2018-01-06T18:42:27.623Z,46.43
2018-01-06T18:44:56.672Z,35.90
2018-01-06T18:47:26.802Z,44.63
2018-01-06T18:49:56.784Z,43.67
2018-01-06T18:52:26.263Z,33.17
2018-01-06T18:54:56.142Z,46.27
2018-01-06T18:57:25.662Z,34.37
2018-01-06T18:59:55.752Z,47.80
2018-01-06T19:02:24.486Z,41.90
2018-01-06T19:04:53.618Z,41.93
2018-01-06T19:07:22.672Z,36.87
2018-01-06T19:09:52.177Z,36.50
2018-01-06T19:12:21.962Z,48.23
2018-01-06T19:14:50.946Z,47.73
2018-01-06T19:17:20.009Z,50.47
2018-01-06T19:19:48.660Z,45.97
2018-01-06T19:22:18.558Z,52.30
2018-01-06T19:24:47.236Z,38.03
2018-01-06T19:27:16.367Z,49.23
2018-01-06T19:29:45.775Z,58.00
2018-01-06T19:32:14.428Z,50.63
2018-01-06T19:34:43.561Z,63.50
2018-01-06T19:37:13.043Z,44.00
2018-01-06T19:39:42.550Z,50.33
2018-01-06T19:42:12.295Z,42.30
2018-01-06T19:44:41.645Z,43.23
2018-01-06T19:47:10.802Z,44.27
2018-01-06T19:49:41.082Z,44.67
2018-01-06T19:52:19.974Z,37.50
2018-01-06T19:54:49.306Z,62.13
2018-01-06T19:57:18.855Z,46.93
2018-01-06T19:59:47.900Z,59.90
2018-01-06T20:02:16.641Z,46.17
2018-01-06T20:04:45.517Z,48.27
2018-01-06T20:07:14.674Z,57.90
2018-01-06T20:09:44.293Z,60.43
2018-01-06T20:12:13.475Z,51.50
2018-01-06T20:14:42.575Z,54.10
2018-01-06T20:17:11.825Z,50.97
2018-01-06T20:19:41.361Z,51.10
2018-01-06T20:22:10.777Z,57.30
2018-01-06T20:24:40.709Z,61.60
2018-01-06T20:27:10.716Z,44.60
2018-01-06T20:29:39.754Z,52.70
2018-01-06T20:32:09.573Z,58.87
2018-01-06T20:34:39.494Z,52.00
2018-01-06T20:37:08.915Z,55.80
2018-01-06T20:39:38.656Z,75.77
2018-01-06T20:42:08.857Z,48.93
2018-01-06T20:44:37.707Z,58.27
2018-01-06T20:47:07.214Z,54.07
2018-01-06T20:49:37.002Z,66.97
2018-01-06T20:52:05.977Z,74.47
2018-01-06T20:54:35.427Z,49.77
2018-01-06T20:57:04.722Z,55.47
2018-01-06T20:59:34.233Z,68.03
2018-01-06T21:02:03.836Z,58.50
2018-01-06T21:04:33.341Z,53.73
2018-01-06T21:07:02.018Z,57.57
2018-01-06T21:09:31.454Z,59.70
2018-01-06T21:12:00.172Z,54.80
2018-01-06T21:14:29.521Z,52.93
2018-01-06T21:16:58.823Z,63.07
2018-01-06T21:19:28.349Z,54.67
2018-01-06T21:21:57.422Z,71.43
2018-01-06T21:24:27.065Z,65.43
2018-01-06T21:26:56.023Z,59.33
2018-01-06T21:29:25.099Z,69.17
2018-01-06T21:31:54.830Z,55.30
2018-01-06T21:34:23.725Z,59.63
2018-01-06T21:36:52.352Z,67.90
2018-01-06T21:39:22.671Z,63.30
2018-01-06T21:41:52.341Z,73.67
2018-01-06T21:44:21.334Z,52.80
2018-01-06T21:46:50.849Z,63.73
2018-01-06T21:49:20.240Z,63.73
2018-01-06T21:51:49.336Z,62.13
2018-01-06T21:54:18.177Z,71.57
2018-01-06T21:56:47.021Z,59.40
2018-01-06T21:59:15.913Z,72.10
2018-01-06T22:01:44.596Z,63.13
2018-01-06T22:04:14.074Z,58.97
2018-01-06T22:06:43.609Z,73.87
2018-01-06T22:09:12.496Z,57.57
2018-01-06T22:11:43.402Z,72.63
2018-01-06T22:14:13.813Z,81.87
2018-01-06T22:16:44.090Z,76.57
2018-01-06T22:19:13.094Z,58.57
2018-01-06T22:21:41.768Z,64.43
2018-01-06T22:24:10.915Z,52.43
2018-01-06T22:26:41.293Z,79.93
2018-01-06T22:29:11.525Z,66.73
2018-01-06T22:31:41.166Z,61.80
2018-01-06T22:34:09.876Z,72.77
2018-01-06T22:36:40.320Z,72.03
2018-01-06T22:39:09.640Z,67.43
2018-01-06T22:41:38.524Z,66.97
2018-01-06T22:44:07.216Z,65.30
2018-01-06T22:46:35.838Z,82.43
2018-01-06T22:49:04.592Z,71.70
2018-01-06T22:51:34.374Z,58.27
2018-01-06T22:54:03.799Z,57.63
2018-01-06T22:56:33.343Z,74.33
2018-01-06T22:59:02.788Z,72.57
2018-01-06T23:01:32.783Z,90.93
2018-01-06T23:04:01.646Z,56.97
2018-01-06T23:06:30.345Z,66.00
2018-01-06T23:08:59.030Z,74.90
2018-01-06T23:11:27.806Z,88.43
2018-01-06T23:13:56.740Z,69.40
2018-01-06T23:16:25.574Z,65.20
2018-01-06T23:18:54.394Z,70.37
2018-01-06T23:21:23.134Z,62.77
2018-01-06T23:23:52.637Z,71.13
2018-01-06T23:26:21.353Z,73.83
2018-01-06T23:28:50.337Z,69.47
2018-01-06T23:31:19.431Z,55.37
2018-01-06T23:33:48.975Z,61.53
2018-01-06T23:36:17.732Z,69.57
2018-01-06T23:38:46.501Z,76.40
2018-01-06T23:41:15.567Z,70.30
2018-01-06T23:43:48.622Z,52.73
2018-01-06T23:46:17.325Z,51.60
2018-01-06T23:48:45.980Z,56.57
2018-01-06T23:51:14.776Z,65.33
2018-01-06T23:53:43.449Z,60.40
2018-01-06T23:56:12.073Z,79.30
2018-01-06T23:58:40.765Z,74.87
